Time;durP1;ratioP1;P1;durP2;ratioP2;P2;SDS_P1;SDS_P2;PMS_P1;PMS_P2;Temp;Humidity;BMP_temperature;BMP_pressure;BME280_temperature;BME280_humidity;BME280_pressure;Samples;Min_cycle;Max_cycle;Signal;HPM_P1;HPM_P2
2023/07/04 00:00:26;;;;;;;7.85;5.22;;;;;;;21.47;48.75;93276.75;4966702;28;20042;-92
2023/07/04 00:02:51;;;;;;;8.85;5.57;;;;;;;21.47;48.94;93272.00;4980627;28;20038;-93
2023/07/04 00:05:17;;;;;;;7.53;5.20;;;;;;;21.47;48.84;93282.25;4976181;28;20039;-95
2023/07/04 00:07:43;;;;;;;7.95;6.05;;;;;;;21.46;48.86;93272.53;4930060;28;20046;-96
2023/07/04 00:10:09;;;;;;;7.78;5.05;;;;;;;21.46;49.11;93267.75;4974646;28;20042;-95
2023/07/04 00:12:34;;;;;;;7.82;5.40;;;;;;;21.48;49.09;93264.47;4960545;28;20038;-94
2023/07/04 00:15:00;;;;;;;10.20;5.68;;;;;;;21.47;48.90;93263.00;4975803;28;20051;-92
2023/07/04 00:17:26;;;;;;;7.47;5.40;;;;;;;21.47;48.83;93271.25;4980691;28;20035;-91
2023/07/04 00:19:51;;;;;;;7.43;5.25;;;;;;;21.47;48.89;93261.00;4958021;28;20035;-94
2023/07/04 00:22:17;;;;;;;7.75;5.40;;;;;;;21.47;48.88;93257.50;4978590;28;20423;-91
2023/07/04 00:24:43;;;;;;;6.85;5.00;;;;;;;21.46;49.03;93259.50;4978953;28;20113;-91
2023/07/04 00:27:10;;;;;;;6.88;5.20;;;;;;;21.44;49.09;93256.56;4962820;28;20073;-92
2023/07/04 00:29:38;;;;;;;8.00;5.45;;;;;;;21.46;48.92;93261.53;4960418;28;20070;-91
2023/07/04 00:32:05;;;;;;;7.93;5.22;;;;;;;21.44;49.02;93253.81;4987766;28;20048;-94
2023/07/04 00:34:30;;;;;;;8.30;5.35;;;;;;;21.45;49.14;93255.28;4970114;28;20129;-92
2023/07/04 00:36:59;;;;;;;7.28;4.95;;;;;;;21.46;49.01;93247.78;4982027;28;20050;-92
2023/07/04 00:39:25;;;;;;;7.68;5.10;;;;;;;21.45;48.67;93254.53;4965740;28;20046;-92
2023/07/04 00:41:51;;;;;;;7.57;5.15;;;;;;;21.45;48.99;93254.53;4965058;28;20054;-92
2023/07/04 00:44:23;;;;;;;7.70;5.10;;;;;;;21.45;48.77;93246.28;4979576;28;20030;-92
2023/07/04 00:47:14;;;;;;;7.53;4.95;;;;;;;21.44;48.99;93251.06;4972538;28;20066;-93
2023/07/04 00:49:42;;;;;;;7.35;4.95;;;;;;;21.44;48.92;93253.06;4939125;28;20054;-92
2023/07/04 00:52:13;;;;;;;8.77;4.68;;;;;;;21.43;49.15;93244.09;4942174;28;20039;-91
2023/07/04 00:54:43;;;;;;;7.88;5.22;;;;;;;21.43;49.18;93248.88;4974160;28;20339;-91
2023/07/04 00:57:09;;;;;;;;;;;;;;;21.46;48.82;93250.53;4955605;28;20129;-91
2023/07/04 00:59:43;;;;;;;7.32;4.68;;;;;;;21.44;49.03;93258.56;4990598;28;19926;-95
2023/07/04 01:02:11;;;;;;;7.15;4.95;;;;;;;21.43;49.03;93257.13;4945714;28;20096;-94
2023/07/04 01:04:36;;;;;;;7.93;4.93;;;;;;;21.42;49.00;93250.88;4948466;28;20043;-91
2023/07/04 01:07:11;;;;;;;6.50;4.88;;;;;;;21.43;49.00;93254.38;4964590;28;20212;-93
2023/07/04 01:09:36;;;;;;;6.78;4.93;;;;;;;21.43;49.01;93251.63;4949677;28;20096;-91
2023/07/04 01:12:02;;;;;;;8.25;5.20;;;;;;;21.43;48.92;93254.38;4950291;28;20532;-91
2023/07/04 01:14:27;;;;;;;6.90;4.55;;;;;;;21.41;49.00;93243.16;4948927;28;20514;-93
2023/07/04 01:16:53;;;;;;;6.45;4.57;;;;;;;21.41;48.95;93248.66;4965448;28;20046;-94
2023/07/04 01:19:24;;;;;;;5.88;4.15;;;;;;;21.42;49.01;93250.88;4964763;28;20041;-93
2023/07/04 01:21:50;;;;;;;6.63;4.60;;;;;;;21.42;49.05;93245.38;4955014;28;20067;-93
2023/07/04 01:24:37;;;;;;;5.88;4.05;;;;;;;21.43;49.04;93248.88;4942344;28;20090;-92
2023/07/04 01:27:03;;;;;;;6.57;4.75;;;;;;;21.42;49.06;93244.63;4977541;28;20106;-92
2023/07/04 01:29:30;;;;;;;7.00;4.90;;;;;;;21.42;49.13;93250.13;4961079;28;20050;-92
2023/07/04 01:31:55;;;;;;;6.75;4.40;;;;;;;21.41;48.97;93238.41;4955515;28;20065;-92
2023/07/04 01:34:21;;;;;;;6.55;4.70;;;;;;;21.43;48.92;93249.59;4957957;28;20038;-95
2023/07/04 01:36:49;;;;;;;6.70;4.20;;;;;;;21.42;49.22;93247.38;4977035;28;20047;-95
2023/07/04 01:39:14;;;;;;;7.13;4.85;;;;;;;21.43;49.16;93251.63;4991132;28;20039;-93
2023/07/04 01:41:41;;;;;;;6.30;4.15;;;;;;;21.40;49.15;93244.44;4966697;28;20042;-92
2023/07/04 01:44:07;;;;;;;7.18;4.97;;;;;;;21.41;48.89;93252.16;4994580;28;20039;-94
2023/07/04 01:46:33;;;;;;;6.07;4.30;;;;;;;21.40;48.95;93253.41;4955482;28;20053;-93
2023/07/04 01:48:59;;;;;;;6.20;4.45;;;;;;;21.42;48.72;93259.13;4964282;28;20074;-92
2023/07/04 01:51:29;;;;;;;7.70;5.05;;;;;;;21.40;49.19;93261.66;4963536;28;20061;-91
2023/07/04 01:53:54;;;;;;;5.70;4.53;;;;;;;21.41;49.21;93265.91;4958214;28;20047;-93
2023/07/04 01:56:21;;;;;;;6.88;4.60;;;;;;;21.41;49.01;93271.41;4955948;28;20041;-91
2023/07/04 01:58:46;;;;;;;6.35;4.85;;;;;;;21.40;49.07;93271.94;4962319;28;20038;-94
2023/07/04 02:01:12;;;;;;;6.30;4.43;;;;;;;21.42;48.93;93280.38;4965690;28;20049;-95
2023/07/04 02:03:37;;;;;;;6.20;3.88;;;;;;;21.41;48.92;93270.66;4973572;28;20031;-94
2023/07/04 02:06:04;;;;;;;6.55;4.63;;;;;;;21.40;48.99;93280.91;4969242;28;20042;-92
2023/07/04 02:08:29;;;;;;;7.20;4.72;;;;;;;21.39;49.32;93281.47;4933309;28;20053;-93
2023/07/04 02:10:55;;;;;;;7.22;4.53;;;;;;;21.38;48.97;93288.22;4945638;28;20054;-92
2023/07/04 02:13:20;;;;;;;7.18;4.82;;;;;;;21.40;48.96;93286.41;4953075;28;20166;-94
2023/07/04 02:15:45;;;;;;;6.32;4.22;;;;;;;21.41;48.99;93282.41;4953623;28;20067;-91
2023/07/04 02:18:11;;;;;;;5.95;4.03;;;;;;;21.41;48.98;93287.91;4945363;28;20094;-94
2023/07/04 02:20:36;;;;;;;7.35;4.75;;;;;;;21.40;49.18;93278.16;4962019;28;20043;-91
2023/07/04 02:23:04;;;;;;;7.45;4.97;;;;;;;21.39;49.14;93281.47;4954908;28;20085;-92
2023/07/04 02:25:29;;;;;;;7.03;4.55;;;;;;;21.40;48.95;93289.16;4955675;28;20065;-95
2023/07/04 02:27:55;;;;;;;7.20;4.57;;;;;;;21.40;48.98;93291.91;4945975;28;20042;-94
2023/07/04 02:30:20;;;;;;;5.70;4.50;;;;;;;21.38;49.24;93294.47;4945430;28;20280;-91
2023/07/04 02:32:45;;;;;;;6.45;4.45;;;;;;;21.38;48.97;93288.97;4966627;28;20035;-93
2023/07/04 02:35:14;;;;;;;7.05;4.82;;;;;;;21.37;49.32;93292.97;4945623;28;20034;-91
2023/07/04 02:37:39;;;;;;;6.38;4.20;;;;;;;21.37;49.10;93292.97;4975412;28;20125;-93
2023/07/04 02:40:06;;;;;;;7.28;4.85;;;;;;;21.36;49.23;93291.50;4949957;28;20043;-92
2023/07/04 02:42:31;;;;;;;8.18;4.70;;;;;;;21.38;48.81;93296.47;4959627;28;20058;-91
2023/07/04 02:44:56;;;;;;;6.25;4.75;;;;;;;21.37;49.10;93282.00;4952810;28;20042;-93
2023/07/04 02:47:26;;;;;;;7.38;4.78;;;;;;;21.37;49.46;93284.75;4958242;28;20046;-91
2023/07/04 02:49:53;;;;;;;6.68;3.72;;;;;;;21.36;49.20;93280.50;4957232;28;20134;-95
2023/07/04 02:52:22;;;;;;;6.90;4.75;;;;;;;21.38;49.12;93286.22;4957588;28;20095;-94
2023/07/04 02:54:50;;;;;;;6.20;3.85;;;;;;;21.37;49.01;93284.00;4952623;28;20046;-94
2023/07/04 02:57:17;;;;;;;6.88;4.63;;;;;;;21.37;49.00;93286.75;4950631;28;20067;-92
2023/07/04 02:59:42;;;;;;;6.18;4.32;;;;;;;21.38;49.13;93293.72;4951727;28;20041;-93
2023/07/04 03:02:07;;;;;;;6.35;4.30;;;;;;;21.37;49.02;93287.50;4979830;28;20039;-94
2023/07/04 03:04:33;;;;;;;6.25;4.32;;;;;;;21.38;49.09;93286.22;4942199;29;20035;-95
2023/07/04 03:06:58;;;;;;;6.95;4.07;;;;;;;21.38;48.82;93285.47;4967954;28;20046;-93
2023/07/04 03:09:24;;;;;;;7.05;4.57;;;;;;;21.36;49.22;93279.75;4957015;28;20046;-92
2023/07/04 03:11:49;;;;;;;5.32;3.88;;;;;;;21.37;48.68;93286.75;4948920;28;20204;-91
2023/07/04 03:14:15;;;;;;;7.32;4.53;;;;;;;21.36;48.88;93285.25;4963189;28;20488;-94
2023/07/04 03:16:40;;;;;;;6.43;4.47;;;;;;;21.36;48.94;93286.00;4974790;28;20516;-92
2023/07/04 03:19:05;;;;;;;9.07;4.95;;;;;;;21.37;49.06;93286.75;4962775;28;20531;-95
2023/07/04 03:21:31;;;;;;;6.38;4.30;;;;;;;21.35;48.72;93292.78;4977914;28;20125;-95
2023/07/04 03:23:56;;;;;;;9.07;5.00;;;;;;;21.34;48.97;93288.53;4968840;28;20039;-93
2023/07/04 03:26:22;;;;;;;18.25;6.30;;;;;;;21.26;48.24;93284.97;4951956;28;20535;-95
2023/07/04 03:28:47;;;;;;;21.33;8.65;;;;;;;21.29;48.03;93292.16;4993798;28;20038;-92
2023/07/04 03:31:13;;;;;;;188.35;165.43;;;;;;;21.32;48.30;93285.59;4978356;28;20044;-94
2023/07/04 03:33:38;;;;;;;101.10;69.90;;;;;;;21.42;48.63;93292.13;4944362;28;20039;-93
2023/07/04 03:36:07;;;;;;;121.05;78.78;;;;;;;21.38;48.39;93297.22;4954492;28;20050;-93
2023/07/04 03:38:33;;;;;;;60.05;37.30;;;;;;;21.48;48.37;93292.72;4963860;28;20043;-94
2023/07/04 03:40:58;;;;;;;18.58;10.55;;;;;;;21.39;47.24;93290.44;4968529;28;20066;-93
2023/07/04 03:43:24;;;;;;;61.75;27.05;;;;;;;21.30;47.23;93293.63;4961334;28;20042;-93
2023/07/04 03:45:49;;;;;;;59.95;25.52;;;;;;;21.27;47.26;93291.94;4954097;28;20677;-92
2023/07/04 03:48:15;;;;;;;51.38;19.75;;;;;;;21.26;47.27;93293.22;4972534;28;20119;-93
2023/07/04 03:50:40;;;;;;;24.88;14.10;;;;;;;21.09;47.46;93292.81;4973591;28;20038;-93
2023/07/04 03:53:06;;;;;;;42.10;18.33;;;;;;;21.08;47.50;93288.56;4985897;28;20054;-93
2023/07/04 03:55:32;;;;;;;32.40;13.43;;;;;;;20.99;47.82;93298.00;5007931;28;20037;-90
2023/07/04 03:57:57;;;;;;;51.88;12.05;;;;;;;20.93;47.87;93294.63;4980356;28;20066;-93
2023/07/04 04:00:23;;;;;;;37.85;12.40;;;;;;;20.85;48.10;93297.25;4976476;28;20043;-92
2023/07/04 04:02:48;;;;;;;61.92;15.48;;;;;;;20.80;48.20;93297.38;4967242;28;20421;-90
2023/07/04 04:05:14;;;;;;;41.15;14.82;;;;;;;20.80;47.65;93298.09;4974828;28;20034;-94
2023/07/04 04:07:39;;;;;;;45.55;21.27;;;;;;;20.83;47.67;93302.53;4970036;28;20080;-92
2023/07/04 04:10:06;;;;;;;64.25;36.42;;;;;;;20.91;47.82;93296.41;4967005;28;20044;-92
2023/07/04 04:12:36;;;;;;;50.63;27.85;;;;;;;20.76;48.23;93297.72;4967916;28;20049;-93
2023/07/04 04:15:06;;;;;;;92.45;27.27;;;;;;;20.80;48.10;93309.09;4990914;28;20030;-93
2023/07/04 04:17:36;;;;;;;87.33;27.00;;;;;;;20.72;48.42;93299.28;4963810;28;20126;-95
2023/07/04 04:20:07;;;;;;;78.30;24.05;;;;;;;20.65;48.41;93314.38;4971851;28;20030;-93
2023/07/04 04:22:33;;;;;;;77.65;28.88;;;;;;;20.70;48.59;93310.81;4984855;23;20409;-94
2023/07/04 04:25:08;;;;;;;254.98;49.35;;;;;;;20.64;48.57;93326.63;4978463;28;20109;-94
2023/07/04 04:27:35;;;;;;;167.18;44.42;;;;;;;20.62;48.67;93323.69;4990561;28;20117;-92
2023/07/04 04:30:05;;;;;;;141.55;35.83;;;;;;;20.58;48.91;93326.00;4972815;28;20042;-93
2023/07/04 04:32:31;;;;;;;100.43;31.53;;;;;;;20.59;49.09;93334.97;4977406;28;20034;-93
2023/07/04 04:35:13;;;;;;;89.00;35.03;;;;;;;20.61;48.92;93332.44;4977483;28;20069;-93
2023/07/04 04:37:39;;;;;;;92.32;35.22;;;;;;;20.61;49.21;93324.94;5002058;23;20034;-92
2023/07/04 04:40:06;;;;;;;99.45;33.83;;;;;;;20.58;49.38;93328.75;5011182;23;20065;-93
2023/07/04 04:45:03;;;;;;;72.40;26.38;;;;;;;20.63;49.47;93333.41;5026041;22;20693;-95
2023/07/04 04:47:33;;;;;;;57.95;23.48;;;;;;;20.55;49.49;93320.84;4978452;28;20113;-93
2023/07/04 04:50:00;;;;;;;58.72;20.58;;;;;;;20.57;49.55;93332.75;4940072;28;20533;-95
2023/07/04 04:52:32;;;;;;;49.70;18.08;;;;;;;20.56;49.22;93345.03;4950442;28;20102;-96
2023/07/04 04:54:58;;;;;;;47.65;16.17;;;;;;;20.58;49.35;93331.47;4952066;28;20047;-93
2023/07/04 04:57:24;;;;;;;59.47;17.35;;;;;;;20.63;49.57;93335.41;4958466;28;20037;-96
2023/07/04 04:59:51;;;;;;;84.25;23.42;;;;;;;20.70;49.84;93332.78;4950153;28;20046;-94
2023/07/04 05:02:16;;;;;;;79.68;28.40;;;;;;;20.71;49.33;93339.00;4939709;28;20042;-95
2023/07/04 05:04:43;;;;;;;67.68;23.38;;;;;;;20.64;49.65;93339.63;4959942;28;20426;-95
2023/07/04 05:07:09;;;;;;;62.58;23.60;;;;;;;20.60;49.83;93345.44;4897645;28;20053;-95
2023/07/04 05:09:37;;;;;;;66.00;22.15;;;;;;;20.62;49.95;93340.16;4875451;29;20044;-91
2023/07/04 05:12:04;;;;;;;67.63;26.50;;;;;;;20.67;50.27;93339.31;4902393;28;20147;-91
2023/07/04 05:14:30;;;;;;;50.17;21.52;;;;;;;20.70;50.41;93351.25;4898561;29;20554;-92
2023/07/04 05:16:55;;;;;;;202.05;35.38;;;;;;;20.68;50.37;93340.81;4910121;29;20059;-93
2023/07/04 05:19:21;;;;;;;179.32;35.97;;;;;;;20.84;50.33;93348.00;4922191;28;20122;-95
2023/07/04 05:21:48;;;;;;;455.33;62.80;;;;;;;20.80;50.41;93347.56;4939954;28;20083;-95
2023/07/04 05:24:29;;;;;;;729.42;96.05;;;;;;;20.81;50.38;93345.56;4939808;28;20039;-96
2023/07/04 05:27:01;;;;;;;1011.17;136.38;;;;;;;20.75;50.92;93353.19;4970539;28;20057;-95
2023/07/04 05:29:27;;;;;;;128.38;44.38;;;;;;;20.86;50.77;93350.94;4911459;28;20047;-93
2023/07/04 05:31:52;;;;;;;172.68;38.30;;;;;;;20.87;50.92;93357.19;4932514;28;20055;-94
2023/07/04 05:34:18;;;;;;;108.07;31.73;;;;;;;20.87;51.03;93363.41;4962339;28;20046;-91
2023/07/04 05:36:47;;;;;;;87.75;30.65;;;;;;;20.91;51.02;93354.88;4948184;28;20053;-92
2023/07/04 05:39:12;;;;;;;99.55;36.13;;;;;;;20.89;51.47;93360.16;4974091;28;20065;-94
2023/07/04 05:41:40;;;;;;;168.30;44.22;;;;;;;20.88;51.41;93359.41;4992107;28;20061;-94
2023/07/04 05:44:07;;;;;;;114.00;37.67;;;;;;;20.90;51.44;93363.63;5002153;28;20046;-95
2023/07/04 05:46:32;;;;;;;144.20;49.90;;;;;;;20.90;51.65;93363.63;4988560;23;20497;-91
2023/07/04 05:49:01;;;;;;;156.82;61.95;;;;;;;20.90;51.64;93361.63;4971823;28;20064;-91
2023/07/04 05:51:26;;;;;;;323.75;173.88;;;;;;;20.92;51.56;93356.34;4955158;28;20607;-91
2023/07/04 05:53:52;;;;;;;281.63;147.35;;;;;;;20.97;51.64;93365.75;4995833;28;20042;-93
2023/07/04 05:56:24;;;;;;;218.55;102.30;;;;;;;20.90;52.02;93363.63;4982869;28;20042;-90
2023/07/04 05:59:00;;;;;;;210.95;110.57;;;;;;;20.96;52.12;93353.28;4964783;28;20030;-92
2023/07/04 06:01:41;;;;;;;236.43;114.68;;;;;;;20.97;51.99;93354.78;4967870;28;20061;-90
2023/07/04 06:04:07;;;;;;;237.00;130.23;;;;;;;21.00;52.27;93362.66;4976127;28;20082;-95
2023/07/04 06:06:35;;;;;;;211.88;105.55;;;;;;;21.06;52.21;93368.81;4960164;28;20042;-92
2023/07/04 06:09:13;;;;;;;211.30;110.05;;;;;;;21.06;51.95;93368.81;4984894;28;20043;-92
2023/07/04 06:11:43;;;;;;;240.07;79.35;;;;;;;21.05;52.06;93361.81;4966581;28;20069;-94
2023/07/04 06:14:37;;;;;;;124.15;62.70;;;;;;;21.07;52.02;93367.53;4997164;28;20591;-93
2023/07/04 06:17:04;;;;;;;122.75;67.85;;;;;;;21.09;52.09;93359.50;4965100;28;20129;-95
2023/07/04 06:19:33;;;;;;;102.47;59.22;;;;;;;21.13;51.87;93361.94;4978614;28;20102;-93
2023/07/04 06:21:58;;;;;;;109.97;62.47;;;;;;;21.18;51.88;93372.84;4976402;28;20116;-90
2023/07/04 06:24:25;;;;;;;90.85;56.67;;;;;;;21.17;51.83;93370.63;4971038;28;20035;-91
2023/07/04 06:26:50;;;;;;;108.82;53.03;;;;;;;21.08;52.24;93371.78;4975925;28;20042;-94
2023/07/04 06:29:18;;;;;;;104.50;54.97;;;;;;;21.14;52.25;93372.41;4966756;28;20050;-92
2023/07/04 06:31:48;;;;;;;130.75;46.40;;;;;;;21.15;52.21;93376.63;4975328;28;20109;-94
2023/07/04 06:34:13;;;;;;;100.73;42.03;;;;;;;21.11;52.28;93378.97;4964232;28;20035;-95
2023/07/04 06:36:40;;;;;;;111.65;35.42;;;;;;;21.02;52.72;93389.63;4966596;28;20303;-93
2023/07/04 06:39:05;;;;;;;104.20;34.65;;;;;;;21.05;52.98;93383.81;4954485;28;20046;-92
2023/07/04 06:41:31;;;;;;;110.60;36.05;;;;;;;21.11;52.71;93387.22;4963946;28;20489;-93
2023/07/04 06:43:57;;;;;;;98.55;35.70;;;;;;;21.05;52.51;93391.31;4977495;28;20073;-94
2023/07/04 06:46:23;;;;;;;127.13;35.72;;;;;;;21.03;52.61;93389.09;4974596;28;20051;-93
2023/07/04 06:48:57;;;;;;;95.55;33.85;;;;;;;21.01;52.61;93388.88;4990175;28;20051;-89
2023/07/04 06:51:29;;;;;;;80.43;28.33;;;;;;;21.04;52.59;93387.84;4984811;28;20043;-91
2023/07/04 06:53:55;;;;;;;93.95;28.38;;;;;;;21.01;52.79;93391.63;5007225;28;20405;-94
2023/07/04 06:56:24;;;;;;;78.68;23.95;;;;;;;21.03;52.90;93396.59;5003223;28;20034;-95
2023/07/04 06:58:59;;;;;;;67.10;22.42;;;;;;;21.02;52.72;93389.63;4974120;28;20102;-92
2023/07/04 07:01:28;;;;;;;84.90;24.60;;;;;;;21.05;52.96;93396.81;4981775;28;20520;-93
2023/07/04 07:03:54;;;;;;;90.40;26.20;;;;;;;21.06;52.94;93390.06;4979883;28;20137;-93
2023/07/04 07:06:19;;;;;;;108.28;32.53;;;;;;;21.07;52.76;93395.03;4964791;28;20112;-92
2023/07/04 07:08:45;;;;;;;106.55;44.72;;;;;;;21.16;52.78;93391.88;4972650;28;20133;-90
2023/07/04 07:11:12;;;;;;;143.40;63.08;;;;;;;21.15;52.62;93398.63;4983466;28;20109;-93
2023/07/04 07:13:39;;;;;;;154.48;62.60;;;;;;;21.23;52.45;93395.25;4982102;28;20400;-93
2023/07/04 07:16:20;;;;;;;137.63;51.15;;;;;;;21.22;52.61;93388.31;4983585;28;20118;-93
2023/07/04 07:18:46;;;;;;;137.10;45.47;;;;;;;21.20;52.99;93406.06;4982489;28;20042;-93
2023/07/04 07:21:14;;;;;;;133.45;42.03;;;;;;;21.24;52.87;93402.22;4973702;28;20161;-93
2023/07/04 07:23:40;;;;;;;102.45;36.22;;;;;;;21.25;53.25;93398.22;4965644;28;20096;-92
2023/07/04 07:26:07;;;;;;;98.25;34.15;;;;;;;21.33;52.96;93404.56;4962316;28;20070;-90
2023/07/04 07:28:34;;;;;;;89.60;31.98;;;;;;;21.27;53.07;93395.69;4969253;28;20052;-93
2023/07/04 07:31:02;;;;;;;115.43;38.83;;;;;;;21.34;52.95;93403.28;4959014;28;20499;-91
2023/07/04 07:33:31;;;;;;;116.93;35.25;;;;;;;21.33;52.66;93402.56;4960028;28;20051;-92
2023/07/04 07:35:56;;;;;;;104.10;34.13;;;;;;;21.33;52.36;93401.81;4955828;28;20101;-93
2023/07/04 07:38:23;;;;;;;129.02;33.80;;;;;;;21.35;52.21;93399.28;4946669;28;20507;-90
2023/07/04 07:40:54;;;;;;;94.05;30.88;;;;;;;21.39;52.51;93389.44;4957266;28;20038;-92
2023/07/04 07:43:19;;;;;;;94.13;35.55;;;;;;;21.43;52.02;93394.63;4943552;28;20549;-91
2023/07/04 07:45:47;;;;;;;91.78;33.53;;;;;;;21.37;52.19;93391.97;4947336;28;20121;-92
2023/07/04 07:48:13;;;;;;;130.65;39.03;;;;;;;21.47;52.06;93392.28;4953098;28;20418;-91
2023/07/04 07:50:41;;;;;;;123.38;40.58;;;;;;;21.50;51.70;93391.94;4959504;28;20042;-90
2023/07/04 07:53:06;;;;;;;130.98;42.47;;;;;;;21.49;51.75;93395.97;4970524;28;20123;-90
2023/07/04 07:55:32;;;;;;;123.72;39.03;;;;;;;21.61;51.60;93391.00;4951760;28;20448;-91
2023/07/04 07:57:57;;;;;;;106.07;35.15;;;;;;;21.48;51.41;93397.25;4949155;28;20139;-94
2023/07/04 08:00:23;;;;;;;252.73;58.50;;;;;;;21.50;51.62;93386.44;4943227;28;20516;-92
2023/07/04 08:02:48;;;;;;;126.80;36.67;;;;;;;21.59;51.91;93387.28;4997667;28;20038;-92
2023/07/04 08:05:14;;;;;;;100.47;36.92;;;;;;;21.56;51.54;93391.84;4976740;28;20056;-92
2023/07/04 08:07:39;;;;;;;115.30;34.83;;;;;;;21.50;51.79;93382.97;4978151;28;20045;-92
2023/07/04 08:10:06;;;;;;;92.57;35.83;;;;;;;21.55;51.64;93379.34;4978617;28;20041;-91
2023/07/04 08:12:34;;;;;;;82.68;33.58;;;;;;;21.58;51.66;93389.31;4984756;28;20077;-92
2023/07/04 08:15:00;;;;;;;82.03;35.97;;;;;;;21.54;51.50;93394.38;4986839;28;20038;-91
2023/07/04 08:17:28;;;;;;;92.95;35.25;;;;;;;21.59;51.81;93379.03;4991343;23;20042;-90
2023/07/04 08:19:54;;;;;;;76.40;34.20;;;;;;;21.57;51.51;93379.56;4972351;28;20090;-94
2023/07/04 08:22:23;;;;;;;76.82;31.83;;;;;;;21.56;51.32;93389.09;4967155;28;20043;-93
2023/07/04 08:24:48;;;;;;;94.07;36.00;;;;;;;21.60;51.54;93395.00;4958883;28;20034;-92
2023/07/04 08:27:14;;;;;;;88.40;37.15;;;;;;;21.55;51.46;93395.88;4938126;28;20158;-93
2023/07/04 08:29:40;;;;;;;89.80;31.33;;;;;;;21.59;51.23;93401.78;4937743;28;20050;-91
2023/07/04 08:32:06;;;;;;;99.47;35.30;;;;;;;21.64;51.32;93397.44;4951924;28;20047;-91
2023/07/04 08:34:31;;;;;;;97.35;34.08;;;;;;;21.64;51.52;93403.69;4936676;29;20050;-93
2023/07/04 08:36:57;;;;;;;77.75;31.48;;;;;;;21.66;51.18;93403.13;4939557;28;20088;-93
2023/07/04 08:39:24;;;;;;;210.32;117.72;;;;;;;21.72;51.32;93401.00;4901531;29;20052;-93
2023/07/04 08:41:57;;;;;;;198.45;106.50;;;;;;;21.74;51.10;93404.72;4917357;29;20046;-93
2023/07/04 08:44:34;;;;;;;186.63;102.10;;;;;;;21.65;51.41;93410.63;4920568;28;20460;-93
2023/07/04 08:47:00;;;;;;;145.65;73.72;;;;;;;21.71;51.43;93405.03;4904405;29;20083;-94
2023/07/04 08:49:34;;;;;;;76.13;41.45;;;;;;;21.63;51.45;93407.72;4943515;29;20047;-93
2023/07/04 08:52:04;;;;;;;94.80;50.67;;;;;;;21.60;51.22;93408.03;4894613;29;20059;-93
2023/07/04 08:54:30;;;;;;;107.00;53.00;;;;;;;21.51;51.48;93406.44;4934014;29;20050;-93
2023/07/04 08:56:58;;;;;;;87.03;43.90;;;;;;;21.46;51.61;93416.28;4923438;28;20051;-93
2023/07/04 08:59:37;;;;;;;65.95;29.70;;;;;;;21.38;51.82;93428.47;4920604;28;20043;-93
2023/07/04 09:02:38;;;;;;;40.35;21.23;;;;;;;21.39;51.62;93416.19;4922990;28;20066;-93
2023/07/04 09:05:35;;;;;;;34.42;16.50;;;;;;;21.33;51.66;93421.06;4909278;28;20227;-93
2023/07/04 09:08:16;;;;;;;32.00;15.23;;;;;;;21.24;51.54;93424.22;4910916;29;20047;-94
2023/07/04 09:10:44;;;;;;;27.90;11.30;;;;;;;21.19;51.20;93425.81;4939894;28;20039;-94
2023/07/04 09:13:12;;;;;;;18.17;9.52;;;;;;;21.09;51.15;93422.72;4958889;28;20047;-94
2023/07/04 09:15:41;;;;;;;62.80;13.25;;;;;;;21.07;51.48;93430.03;4934104;28;20043;-94
2023/07/04 09:18:31;;;;;;;53.63;12.43;;;;;;;21.07;51.69;93417.00;4934039;28;20058;-93
2023/07/04 09:21:03;;;;;;;77.78;15.57;;;;;;;20.97;51.69;93434.47;4970885;28;20054;-93
2023/07/04 09:23:29;;;;;;;87.97;18.30;;;;;;;20.93;51.52;93429.28;4952241;28;20126;-93
2023/07/04 09:25:56;;;;;;;73.70;26.58;;;;;;;20.95;51.84;93423.25;4925055;29;20065;-94
2023/07/04 09:28:21;;;;;;;160.70;72.43;;;;;;;21.07;51.58;93425.25;4948346;28;20079;-91
2023/07/04 09:30:47;;;;;;;114.70;51.05;;;;;;;21.09;51.53;93425.47;4940116;29;20039;-94
2023/07/04 09:33:26;;;;;;;388.10;202.82;;;;;;;21.07;51.29;93427.28;4940253;28;20142;-93
2023/07/04 09:35:52;;;;;;;140.80;67.85;;;;;;;20.96;51.16;93432.97;4939733;29;20043;-93
2023/07/04 09:38:17;;;;;;;58.08;24.98;;;;;;;20.90;51.38;93435.81;4920107;29;20115;-94
2023/07/04 09:40:51;;;;;;;31.70;14.60;;;;;;;20.84;51.11;93432.41;4928183;28;20042;-93
2023/07/04 09:43:31;;;;;;;23.23;9.48;;;;;;;20.85;51.19;93431.16;4930892;28;20051;-92
2023/07/04 09:46:20;;;;;;;14.50;7.67;;;;;;;20.82;51.58;93435.69;4934241;29;20465;-92
2023/07/04 09:48:47;;;;;;;12.07;6.72;;;;;;;20.80;51.77;93429.97;4928403;29;20175;-91
2023/07/04 09:51:18;;;;;;;10.05;5.60;;;;;;;20.84;52.05;93435.91;4960939;23;20047;-92
2023/07/04 09:53:46;;;;;;;8.43;4.80;;;;;;;20.80;52.12;93434.72;5016114;28;20046;-92
2023/07/04 09:56:25;;;;;;;30.83;13.13;;;;;;;20.86;51.99;93422.38;4976723;28;20031;-91
2023/07/04 09:59:16;;;;;;;24.63;8.90;;;;;;;20.84;52.07;93430.41;4987276;28;20053;-89
2023/07/04 10:01:46;;;;;;;24.48;9.10;;;;;;;20.87;52.13;93423.13;4931036;28;20139;-91
2023/07/04 10:04:13;;;;;;;25.08;8.93;;;;;;;20.95;52.29;93428.75;4924896;28;20596;-94
2023/07/04 10:06:39;;;;;;;11.90;6.00;;;;;;;20.96;51.94;93427.47;4926343;28;20050;-88
2023/07/04 10:09:15;;;;;;;17.67;5.40;;;;;;;20.96;52.00;93427.47;4941976;29;20086;-92
2023/07/04 10:12:10;;;;;;;11.23;4.00;;;;;;;20.97;51.93;93435.19;4941130;28;20043;-92
2023/07/04 10:14:36;;;;;;;7.13;3.95;;;;;;;20.96;52.14;93432.97;4970189;28;20046;-90
2023/07/04 10:17:10;;;;;;;9.60;2.60;;;;;;;21.00;51.78;93425.88;4950687;28;20109;-92
2023/07/04 10:19:45;;;;;;;4.38;2.67;;;;;;;20.93;51.60;93429.28;4951519;28;20101;-94
2023/07/04 10:22:11;;;;;;;7.65;3.25;;;;;;;20.91;51.44;93429.06;4932912;28;20043;-90
2023/07/04 10:24:36;;;;;;;5.40;2.53;;;;;;;20.88;51.16;93427.34;4936232;28;20049;-92
2023/07/04 10:27:04;;;;;;;5.15;2.70;;;;;;;20.88;51.43;93430.09;4927787;28;20043;-92
2023/07/04 10:29:39;;;;;;;5.05;2.20;;;;;;;20.87;51.20;93425.88;4929002;29;20120;-87
2023/07/04 10:32:13;;;;;;;3.45;1.95;;;;;;;20.86;51.30;93436.13;4932821;28;20058;-91
2023/07/04 10:34:38;;;;;;;3.45;2.20;;;;;;;20.88;50.92;93430.09;4972392;28;20065;-88
2023/07/04 10:37:05;;;;;;;5.15;2.20;;;;;;;20.94;50.94;93433.50;4973482;28;20494;-90
2023/07/04 10:39:31;;;;;;;3.75;2.30;;;;;;;20.98;50.84;93427.69;4962371;28;20046;-91
2023/07/04 10:42:07;;;;;;;6.05;2.40;;;;;;;21.00;50.79;93431.38;4962355;28;20045;-92
2023/07/04 10:44:33;;;;;;;4.22;2.65;;;;;;;21.06;50.92;93425.78;4977962;28;20625;-91
2023/07/04 10:47:02;;;;;;;4.57;3.53;;;;;;;21.03;50.34;93422.09;4955388;28;20047;-91
2023/07/04 10:49:29;;;;;;;10.95;6.50;;;;;;;21.02;50.21;93422.59;4964459;28;20097;-92
2023/07/04 10:52:02;;;;;;;13.23;9.68;;;;;;;21.06;50.00;93420.28;4959964;28;20418;-88
2023/07/04 10:54:27;;;;;;;21.13;13.90;;;;;;;21.04;50.03;93428.31;4973449;28;20497;-91
2023/07/04 10:56:55;;;;;;;29.70;14.52;;;;;;;21.07;49.50;93424.53;4979353;28;20037;-89
2023/07/04 10:59:26;;;;;;;17.02;8.90;;;;;;;21.11;49.42;93422.19;5004529;28;20386;-88
2023/07/04 11:01:56;;;;;;;34.40;19.88;;;;;;;21.08;49.82;93417.75;4960230;28;20039;-87
2023/07/04 11:04:31;;;;;;;53.58;29.10;;;;;;;21.12;49.11;93416.19;4996564;28;20057;-90
2023/07/04 11:07:00;;;;;;;65.50;30.20;;;;;;;21.10;49.25;93415.22;4963835;28;20039;-91
2023/07/04 11:09:26;;;;;;;41.75;20.45;;;;;;;21.12;49.48;93407.94;4968189;28;20053;-91
2023/07/04 11:11:52;;;;;;;36.97;20.52;;;;;;;21.08;49.64;93412.25;4968436;28;20034;-93
2023/07/04 11:14:24;;;;;;;39.67;16.63;;;;;;;21.14;49.07;93421.16;4981467;28;20066;-93
2023/07/04 11:16:50;;;;;;;33.40;18.48;;;;;;;21.15;49.17;93417.13;4983470;28;20034;-93
2023/07/04 11:19:19;;;;;;;33.33;16.90;;;;;;;21.10;49.50;93421.47;4980648;28;20034;-93
2023/07/04 11:22:02;;;;;;;48.33;17.70;;;;;;;21.17;49.39;93417.34;4980233;28;20090;-95
2023/07/04 11:24:36;;;;;;;33.55;13.57;;;;;;;21.14;49.65;93413.63;4993329;28;20038;-93
2023/07/04 11:27:13;;;;;;;20.42;10.50;;;;;;;21.14;49.55;93410.91;4985395;28;20614;-91
2023/07/04 11:29:55;;;;;;;58.60;26.73;;;;;;;21.15;49.53;93415.13;5000976;28;20034;-92